Time;durP1;ratioP1;P1;durP2;ratioP2;P2;SDS_P1;SDS_P2;PMS_P1;PMS_P2;Temp;Humidity;BMP_temperature;BMP_pressure;BME280_temperature;BME280_humidity;BME280_pressure;Samples;Min_cycle;Max_cycle;Signal;HPM_P1;HPM_P2
2023/11/17 00:01:56;;;;;;;0.20;0.10;;;;;;;;;;6280363;22;20050;-87
2023/11/17 00:04:38;;;;;;;0.20;0.10;;;;;;;;;;6279336;22;20112;-87
2023/11/17 00:14:23;;;;;;;0.20;0.10;;;;;;;;;;6304530;22;20060;-85
2023/11/17 00:17:14;;;;;;;0.20;0.10;;;;;;;;;;6280123;22;20457;-87
2023/11/17 00:19:56;;;;;;;0.30;0.10;;;;;;;;;;6280099;22;20022;-87
2023/11/17 00:22:39;;;;;;;0.20;0.00;;;;;;;;;;6281878;22;20011;-88
2023/11/17 00:25:20;;;;;;;0.20;0.00;;;;;;;;;;6278944;22;20011;-87
2023/11/17 00:27:54;;;;;;;0.20;0.10;;;;;;;;;;6281376;22;20025;-87
2023/11/17 00:30:37;;;;;;;0.20;0.10;;;;;;;;;;6279557;22;20510;-87
2023/11/17 00:33:32;;;;;;;0.20;0.05;;;;;;;;;;6308688;22;20042;-87
2023/11/17 00:36:17;;;;;;;0.20;0.05;;;;;;;;;;6310477;22;20513;-87
2023/11/17 00:38:51;;;;;;;0.20;0.10;;;;;;;;;;6279727;22;20050;-87
2023/11/17 00:41:28;;;;;;;0.20;0.08;;;;;;;;;;6278816;22;20010;-87
2023/11/17 00:44:28;;;;;;;0.20;0.10;;;;;;;;;;6281407;22;20014;-87
2023/11/17 00:47:22;;;;;;;0.20;0.00;;;;;;;;;;6309704;22;20357;-87
2023/11/17 00:53:03;;;;;;;0.20;0.17;;;;;;;;;;6303256;22;20103;-87
2023/11/17 00:55:33;;;;;;;0.20;0.13;;;;;;;;;;6280566;22;20019;-87
2023/11/17 00:58:08;;;;;;;0.20;0.00;;;;;;;;;;6278221;22;20015;-87
2023/11/17 01:00:43;;;;;;;0.20;0.00;;;;;;;;;;6280123;22;20584;-88
2023/11/17 01:03:16;;;;;;;0.20;0.00;;;;;;;;;;6279429;22;20017;-88
2023/11/17 01:06:21;;;;;;;0.20;0.10;;;;;;;;;;6280975;22;20086;-87
2023/11/17 01:09:01;;;;;;;0.60;0.20;;;;;;;;;;6282418;22;20453;-88
2023/11/17 01:11:37;;;;;;;0.30;0.30;;;;;;;;;;6279971;22;20306;-88
2023/11/17 01:14:28;;;;;;;0.20;0.00;;;;;;;;;;6280852;22;20453;-87
2023/11/17 01:20:25;;;;;;;0.20;0.15;;;;;;;;;;6329559;22;20022;-88
2023/11/17 01:26:46;;;;;;;0.20;0.10;;;;;;;;;;6208095;23;20146;-88
2023/11/17 01:29:36;;;;;;;0.20;0.00;;;;;;;;;;6263552;22;20416;-88
2023/11/17 01:32:32;;;;;;;0.20;0.10;;;;;;;;;;6262164;22;20096;-88
2023/11/17 01:35:15;;;;;;;0.20;0.00;;;;;;;;;;6282744;22;20007;-87
2023/11/17 01:37:44;;;;;;;0.30;0.20;;;;;;;;;;6280335;22;20015;-87
2023/11/17 01:40:56;;;;;;;0.20;0.00;;;;;;;;;;6278885;22;20011;-90
2023/11/17 01:43:35;;;;;;;0.20;0.10;;;;;;;;;;6306800;22;20541;-88
2023/11/17 01:53:35;;;;;;;0.20;0.10;;;;;;;;;;6114673;23;20021;-89
2023/11/17 01:56:57;;;;;;;0.20;0.00;;;;;;;;;;6079146;23;20555;-87
2023/11/17 02:03:00;;;;;;;0.20;0.00;;;;;;;;;;6167630;22;20012;-87
2023/11/17 02:06:01;;;;;;;0.20;0.00;;;;;;;;;;6311038;22;20456;-87
2023/11/17 02:09:13;;;;;;;0.60;0.47;;;;;;;;;;6280029;22;20015;-87
2023/11/17 02:11:52;;;;;;;0.20;0.10;;;;;;;;;;6126281;23;20105;-87
2023/11/17 02:14:43;;;;;;;0.20;0.00;;;;;;;;;;6127924;23;20463;-87
2023/11/17 02:17:28;;;;;;;0.20;0.00;;;;;;;;;;6250447;22;20019;-87
2023/11/17 02:20:11;;;;;;;0.20;0.10;;;;;;;;;;6282605;22;20015;-87
2023/11/17 02:22:50;;;;;;;0.20;0.00;;;;;;;;;;6282869;22;20355;-88
2023/11/17 02:29:37;;;;;;;2.30;0.55;;;;;;;;;;6101163;23;20029;-87
2023/11/17 02:32:33;;;;;;;0.20;0.10;;;;;;;;;;6131070;23;20491;-88
2023/11/17 02:35:28;;;;;;;0.20;0.00;;;;;;;;;;6311907;22;20050;-88
2023/11/17 02:38:09;;;;;;;0.20;0.00;;;;;;;;;;6307286;22;20019;-88
2023/11/17 02:40:47;;;;;;;0.20;0.10;;;;;;;;;;6283387;22;20019;-88
2023/11/17 02:43:37;;;;;;;0.20;0.00;;;;;;;;;;6292846;22;20078;-87
2023/11/17 02:49:17;;;;;;;0.20;0.00;;;;;;;;;;6307458;22;20115;-87
2023/11/17 02:51:51;;;;;;;0.20;0.00;;;;;;;;;;6279950;22;20011;-87
2023/11/17 02:54:40;;;;;;;0.20;0.10;;;;;;;;;;6283096;22;20014;-88
2023/11/17 02:57:46;;;;;;;0.20;0.10;;;;;;;;;;6306088;22;20015;-87
2023/11/17 03:00:52;;;;;;;0.30;0.20;;;;;;;;;;6284341;22;20011;-88
2023/11/17 03:03:30;;;;;;;0.20;0.00;;;;;;;;;;6284119;22;20021;-88
2023/11/17 03:06:21;;;;;;;0.20;0.05;;;;;;;;;;6282212;22;20019;-88
2023/11/17 03:08:53;;;;;;;0.20;0.03;;;;;;;;;;6239935;23;20020;-87
2023/11/17 03:11:47;;;;;;;0.20;0.10;;;;;;;;;;6279784;22;20022;-88
2023/11/17 03:14:19;;;;;;;0.52;0.30;;;;;;;;;;6283537;22;20109;-87
2023/11/17 03:20:55;;;;;;;;;;;;;;;;;;;;;
2023/11/17 03:23:50;;;;;;;0.20;0.00;;;;;;;;;;6199841;23;20355;-90
2023/11/17 03:33:39;;;;;;;0.20;0.00;;;;;;;;;;6064080;23;20049;-88
2023/11/17 03:39:15;;;;;;;0.20;0.05;;;;;;;;;;6309034;22;20019;-88
2023/11/17 03:41:55;;;;;;;0.20;0.10;;;;;;;;;;6283492;22;20011;-88
2023/11/17 03:44:46;;;;;;;0.20;0.10;;;;;;;;;;6283492;22;20480;-89
2023/11/17 03:51:08;;;;;;;0.20;0.05;;;;;;;;;;6240392;23;20026;-88
2023/11/17 03:53:42;;;;;;;0.20;0.10;;;;;;;;;;6186631;23;20008;-88
2023/11/17 03:57:02;;;;;;;0.43;0.43;;;;;;;;;;6210143;22;20481;-87
2023/11/17 03:59:13;;;;;;;0.65;0.45;;;;;;;;;;6269008;22;20522;-88
2023/11/17 04:01:51;;;;;;;0.25;0.15;;;;;;;;;;6252262;22;20007;-88
2023/11/17 04:04:27;;;;;;;0.20;0.03;;;;;;;;;;6251765;22;20014;-86
2023/11/17 04:06:55;;;;;;;0.20;0.00;;;;;;;;;;6251992;22;20043;-86
2023/11/17 04:09:28;;;;;;;0.20;0.10;;;;;;;;;;6250402;22;20013;-86
2023/11/17 04:12:00;;;;;;;0.30;0.30;;;;;;;;;;6251703;22;20011;-87
2023/11/17 04:14:38;;;;;;;0.20;0.10;;;;;;;;;;6252030;22;20018;-86
2023/11/17 04:17:28;;;;;;;0.20;0.10;;;;;;;;;;6251851;22;20090;-87
2023/11/17 04:20:14;;;;;;;0.20;0.00;;;;;;;;;;6252683;22;20011;-87
2023/11/17 04:22:43;;;;;;;0.20;0.00;;;;;;;;;;6250742;22;20011;-87
2023/11/17 04:25:09;;;;;;;0.20;0.10;;;;;;;;;;6250748;22;20441;-87
2023/11/17 04:27:38;;;;;;;0.20;0.00;;;;;;;;;;6250533;22;20047;-86
2023/11/17 04:30:11;;;;;;;0.20;0.10;;;;;;;;;;6251100;22;20011;-86
2023/11/17 04:32:57;;;;;;;0.20;0.00;;;;;;;;;;6251070;22;20041;-86
2023/11/17 04:35:37;;;;;;;0.20;0.00;;;;;;;;;;6252540;22;20015;-85
2023/11/17 04:38:03;;;;;;;0.22;0.05;;;;;;;;;;6276856;22;20022;-87
2023/11/17 04:40:50;;;;;;;0.20;0.10;;;;;;;;;;6253660;22;20015;-88
2023/11/17 04:43:19;;;;;;;0.20;0.00;;;;;;;;;;6250890;22;20012;-88
2023/11/17 04:46:23;;;;;;;0.20;0.10;;;;;;;;;;6250744;22;20098;-87
2023/11/17 04:49:27;;;;;;;0.20;0.00;;;;;;;;;;6278590;22;20121;-88
2023/11/17 04:55:58;;;;;;;;;;;;;;;;;;;;;
2023/11/17 04:58:45;;;;;;;0.20;0.00;;;;;;;;;;6305595;22;20527;-87
2023/11/17 05:01:14;;;;;;;0.20;0.10;;;;;;;;;;6278719;22;20018;-87
2023/11/17 05:04:00;;;;;;;0.20;0.10;;;;;;;;;;6280454;22;20227;-86
2023/11/17 05:06:48;;;;;;;0.20;0.00;;;;;;;;;;6280240;22;20535;-88
2023/11/17 05:09:26;;;;;;;0.20;0.10;;;;;;;;;;6280350;22;20536;-87
2023/11/17 05:12:11;;;;;;;0.85;0.45;;;;;;;;;;6280334;22;20059;-87
2023/11/17 05:14:54;;;;;;;0.20;0.10;;;;;;;;;;6278898;22;20011;-88
2023/11/17 05:17:22;;;;;;;0.20;0.10;;;;;;;;;;6279907;22;20015;-87
2023/11/17 05:19:55;;;;;;;0.20;0.10;;;;;;;;;;6279720;22;20014;-87
2023/11/17 05:22:33;;;;;;;0.20;0.00;;;;;;;;;;6282089;22;20631;-87
2023/11/17 05:25:25;;;;;;;0.38;0.08;;;;;;;;;;6280900;22;20097;-87
2023/11/17 05:31:31;;;;;;;0.20;0.10;;;;;;;;;;6233621;23;20023;-88
2023/11/17 05:34:03;;;;;;;0.20;0.08;;;;;;;;;;6187429;23;20012;-87
2023/11/17 05:36:56;;;;;;;0.20;0.10;;;;;;;;;;6256198;22;20357;-87
2023/11/17 05:39:28;;;;;;;0.20;0.05;;;;;;;;;;6269768;22;20099;-86
2023/11/17 05:41:56;;;;;;;0.20;0.17;;;;;;;;;;6279887;22;20094;-87
2023/11/17 05:44:28;;;;;;;0.20;0.10;;;;;;;;;;6281093;22;20057;-87
2023/11/17 05:46:57;;;;;;;0.20;0.20;;;;;;;;;;6274710;22;20102;-86
2023/11/17 05:50:10;;;;;;;;;;;;;;;;;;;;;
2023/11/17 05:52:41;;;;;;;0.20;0.10;;;;;;;;;;6305517;22;20016;-87
2023/11/17 05:55:23;;;;;;;0.20;0.10;;;;;;;;;;6279508;22;20090;-87
2023/11/17 05:58:04;;;;;;;0.20;0.08;;;;;;;;;;6279867;22;20023;-87
2023/11/17 06:00:48;;;;;;;0.20;0.10;;;;;;;;;;6305989;22;20090;-87
2023/11/17 06:03:53;;;;;;;0.20;0.00;;;;;;;;;;6308703;22;20083;-87
2023/11/17 06:06:27;;;;;;;0.20;0.10;;;;;;;;;;6276387;22;20519;-87
2023/11/17 06:08:53;;;;;;;0.20;0.10;;;;;;;;;;6283573;22;20011;-86
2023/11/17 06:11:30;;;;;;;0.20;0.10;;;;;;;;;;6281284;22;20391;-88
2023/11/17 06:14:07;;;;;;;0.20;0.00;;;;;;;;;;6281229;22;20050;-87
2023/11/17 06:17:02;;;;;;;0.20;0.10;;;;;;;;;;6282437;22;20021;-87
2023/11/17 06:20:00;;;;;;;0.20;0.10;;;;;;;;;;6229230;22;20015;-87
2023/11/17 06:32:18;;;;;;;0.20;0.10;;;;;;;;;;6309580;22;20061;-87
2023/11/17 06:35:11;;;;;;;0.20;0.08;;;;;;;;;;6240365;23;20008;-86
2023/11/17 06:38:05;;;;;;;0.20;0.00;;;;;;;;;;6273615;22;20026;-86
2023/11/17 06:40:37;;;;;;;0.20;0.10;;;;;;;;;;6281428;22;20017;-88
2023/11/17 06:54:11;;;;;;;0.20;0.03;;;;;;;;;;6153277;23;20521;-88
2023/11/17 06:56:58;;;;;;;0.20;0.10;;;;;;;;;;6141662;22;20069;-89
2023/11/17 07:02:40;;;;;;;0.20;0.10;;;;;;;;;;6292270;22;20027;-88
2023/11/17 07:05:17;;;;;;;0.20;0.10;;;;;;;;;;6214192;22;20070;-89
2023/11/17 07:08:07;;;;;;;0.20;0.10;;;;;;;;;;6216018;22;20503;-88
2023/11/17 07:13:31;;;;;;;0.20;0.10;;;;;;;;;;6269949;22;20030;-86
2023/11/17 07:16:15;;;;;;;0.20;0.10;;;;;;;;;;6261152;22;20077;-86
2023/11/17 07:25:55;;;;;;;;;;;;;;;;;;;;;
2023/11/17 07:42:02;;;;;;;0.20;0.10;;;;;;;;;;6172777;23;20025;-86
2023/11/17 07:48:47;;;;;;;0.20;0.10;;;;;;;;;;6124033;23;20081;-86
2023/11/17 08:14:59;;;;;;;;;;;;;;;;;;;;;
2023/11/17 08:18:23;;;;;;;0.20;0.10;;;;;;;;;;6310552;22;20080;-88
2023/11/17 08:35:50;;;;;;;0.28;0.17;;;;;;;;;;5965026;23;20023;-87
2023/11/17 08:38:23;;;;;;;0.20;0.10;;;;;;;;;;5986383;23;20096;-87
2023/11/17 08:40:55;;;;;;;0.40;0.20;;;;;;;;;;6131771;22;20028;-87
2023/11/17 08:43:57;;;;;;;0.20;0.00;;;;;;;;;;6252167;22;20011;-87
2023/11/17 08:46:29;;;;;;;0.20;0.10;;;;;;;;;;6277607;22;20098;-87
2023/11/17 08:55:27;;;;;;;0.20;0.00;;;;;;;;;;6276869;22;20011;-88
2023/11/17 08:57:54;;;;;;;0.20;0.10;;;;;;;;;;6251883;22;20835;-87
2023/11/17 09:00:37;;;;;;;0.20;0.10;;;;;;;;;;6253187;22;20068;-86
2023/11/17 09:03:22;;;;;;;0.20;0.10;;;;;;;;;;6281100;22;20508;-87
2023/11/17 09:05:53;;;;;;;0.85;0.50;;;;;;;;;;6252117;22;20058;-87
2023/11/17 09:08:19;;;;;;;0.38;0.15;;;;;;;;;;6255777;22;20011;-85
2023/11/17 09:14:32;;;;;;;0.20;0.10;;;;;;;;;;6096116;23;20026;-88
2023/11/17 09:17:28;;;;;;;0.20;0.10;;;;;;;;;;6081705;23;20045;-89
2023/11/17 09:19:53;;;;;;;0.20;0.10;;;;;;;;;;6167498;23;20008;-84
2023/11/17 09:25:49;;;;;;;0.20;0.03;;;;;;;;;;6153231;23;20025;-92
2023/11/17 09:28:18;;;;;;;0.20;0.10;;;;;;;;;;6142465;23;20086;-88
2023/11/17 09:30:56;;;;;;;0.20;0.05;;;;;;;;;;6195247;23;20016;-86
2023/11/17 09:33:27;;;;;;;0.20;0.10;;;;;;;;;;6235293;23;20022;-89
2023/11/17 09:36:06;;;;;;;0.20;0.00;;;;;;;;;;6232115;23;20000;-91
2023/11/17 09:39:15;;;;;;;0.20;0.00;;;;;;;;;;6230326;22;20012;-87
2023/11/17 09:42:19;;;;;;;0.20;0.08;;;;;;;;;;6186449;22;20031;-87
2023/11/17 09:45:41;;;;;;;0.20;0.00;;;;;;;;;;6284466;22;20480;-92
2023/11/17 09:48:21;;;;;;;0.20;0.10;;;;;;;;;;6207249;22;20016;-87
2023/11/17 09:50:55;;;;;;;0.20;0.10;;;;;;;;;;6254905;22;20016;-84
2023/11/17 09:53:23;;;;;;;0.20;0.00;;;;;;;;;;6276407;22;20019;-82
2023/11/17 09:55:55;;;;;;;0.20;0.10;;;;;;;;;;6258247;22;20031;-86
2023/11/17 09:58:21;;;;;;;0.20;0.00;;;;;;;;;;6253697;22;20020;-83
2023/11/17 10:00:48;;;;;;;0.20;0.00;;;;;;;;;;6255366;22;20012;-87
2023/11/17 10:03:14;;;;;;;0.20;0.10;;;;;;;;;;6259063;22;20042;-85
2023/11/17 10:05:43;;;;;;;0.50;0.30;;;;;;;;;;6265151;22;20035;-87
2023/11/17 10:08:14;;;;;;;0.20;0.03;;;;;;;;;;6260110;22;20004;-86
2023/11/17 10:10:49;;;;;;;0.20;0.00;;;;;;;;;;6257499;22;20019;-83
2023/11/17 10:13:31;;;;;;;0.20;0.00;;;;;;;;;;6261370;22;20026;-88
2023/11/17 10:15:58;;;;;;;0.20;0.10;;;;;;;;;;6258344;22;20022;-86
2023/11/17 10:18:34;;;;;;;0.20;0.00;;;;;;;;;;6257424;22;20023;-86
2023/11/17 10:21:13;;;;;;;0.20;0.00;;;;;;;;;;6252468;22;20466;-85
2023/11/17 10:23:41;;;;;;;0.20;0.00;;;;;;;;;;6258061;22;20035;-84
2023/11/17 10:26:07;;;;;;;0.20;0.10;;;;;;;;;;6256000;22;20007;-84
2023/11/17 10:28:36;;;;;;;0.20;0.10;;;;;;;;;;6275755;22;20019;-85
2023/11/17 10:31:31;;;;;;;0.20;0.10;;;;;;;;;;6252122;22;20111;-88
2023/11/17 10:34:00;;;;;;;0.20;0.00;;;;;;;;;;6231197;22;20059;-84
2023/11/17 10:36:26;;;;;;;0.20;0.00;;;;;;;;;;6250851;22;20306;-86
2023/11/17 10:39:07;;;;;;;0.20;0.00;;;;;;;;;;6248754;22;20086;-83
2023/11/17 10:42:02;;;;;;;0.20;0.00;;;;;;;;;;6253750;22;20012;-87
2023/11/17 10:44:38;;;;;;;0.20;0.05;;;;;;;;;;6248027;22;20051;-87
2023/11/17 10:47:24;;;;;;;0.20;0.10;;;;;;;;;;6264505;22;20101;-86
2023/11/17 10:50:15;;;;;;;0.20;0.10;;;;;;;;;;6250440;22;20073;-85
2023/11/17 10:52:47;;;;;;;;;;;;;;;;;;6253611;22;20181;-88
2023/11/17 10:59:37;;;;;;;0.20;0.10;;;;;;;;;;6216335;22;20060;-87
2023/11/17 11:02:25;;;;;;;;;;;;;;;;;;;;;
2023/11/17 11:05:25;;;;;;;0.20;0.10;;;;;;;;;;6250442;22;20537;-87
2023/11/17 11:07:58;;;;;;;0.20;0.10;;;;;;;;;;6249661;22;20066;-84
2023/11/17 11:11:04;;;;;;;0.20;0.10;;;;;;;;;;6247046;22;20069;-88
2023/11/17 11:17:22;;;;;;;0.20;0.10;;;;;;;;;;6229623;23;20088;-86
2023/11/17 11:19:59;;;;;;;0.20;0.10;;;;;;;;;;6252050;22;20460;-86
2023/11/17 11:22:26;;;;;;;0.20;0.03;;;;;;;;;;6248635;22;20184;-85
2023/11/17 11:24:52;;;;;;;0.30;0.20;;;;;;;;;;6245606;22;20012;-84
2023/11/17 11:27:19;;;;;;;0.20;0.08;;;;;;;;;;6247318;22;20026;-83
2023/11/17 11:30:00;;;;;;;0.20;0.10;;;;;;;;;;6271084;22;20391;-87
2023/11/17 11:32:45;;;;;;;0.20;0.05;;;;;;;;;;6267280;22;20097;-85
2023/11/17 11:35:12;;;;;;;0.20;0.10;;;;;;;;;;6245532;22;20103;-84
2023/11/17 11:37:38;;;;;;;0.20;0.00;;;;;;;;;;6242540;22;20343;-85
2023/11/17 11:40:12;;;;;;;0.20;0.10;;;;;;;;;;6269439;22;20015;-85
2023/11/17 11:42:42;;;;;;;0.20;0.10;;;;;;;;;;6245005;22;20015;-85
2023/11/17 11:45:16;;;;;;;0.20;0.10;;;;;;;;;;6244137;22;20535;-84
2023/11/17 11:47:49;;;;;;;0.20;0.00;;;;;;;;;;6270293;22;20024;-84
2023/11/17 11:50:20;;;;;;;0.20;0.10;;;;;;;;;;6244295;22;20063;-86
2023/11/17 11:52:56;;;;;;;0.20;0.00;;;;;;;;;;6244783;22;20023;-84
2023/11/17 11:55:22;;;;;;;0.20;0.08;;;;;;;;;;6244602;22;20094;-83
2023/11/17 11:57:58;;;;;;;0.20;0.00;;;;;;;;;;6245011;22;20038;-85
2023/11/17 12:00:26;;;;;;;0.80;0.47;;;;;;;;;;6244280;22;20034;-85
2023/11/17 12:02:58;;;;;;;0.20;0.13;;;;;;;;;;6243798;22;20508;-86
2023/11/17 12:05:34;;;;;;;0.20;0.10;;;;;;;;;;6244555;22;20011;-85
2023/11/17 12:08:04;;;;;;;0.40;0.40;;;;;;;;;;6243870;22;20453;-85
2023/11/17 12:10:35;;;;;;;0.45;0.45;;;;;;;;;;6243646;22;20016;-83
2023/11/17 12:13:02;;;;;;;0.22;0.05;;;;;;;;;;6243301;22;20012;-86
2023/11/17 12:15:30;;;;;;;0.40;0.20;;;;;;;;;;6244699;22;20023;-85
2023/11/17 12:18:00;;;;;;;0.20;0.00;;;;;;;;;;6244519;22;20101;-84
2023/11/17 12:20:27;;;;;;;0.30;0.30;;;;;;;;;;6243135;22;20016;-86
2023/11/17 12:23:03;;;;;;;0.20;0.10;;;;;;;;;;6270804;22;20081;-84
2023/11/17 12:25:30;;;;;;;0.20;0.20;;;;;;;;;;6269188;22;20018;-85
2023/11/17 12:27:57;;;;;;;0.20;0.13;;;;;;;;;;6271049;22;20019;-86
2023/11/17 12:30:26;;;;;;;0.20;0.10;;;;;;;;;;6243968;22;20058;-85
2023/11/17 12:33:27;;;;;;;0.20;0.10;;;;;;;;;;6242918;22;20015;-87
2023/11/17 12:35:59;;;;;;;0.20;0.00;;;;;;;;;;6272116;22;20015;-85
2023/11/17 12:38:28;;;;;;;0.20;0.10;;;;;;;;;;6247361;22;20056;-87
2023/11/17 12:41:00;;;;;;;0.20;0.20;;;;;;;;;;6244593;22;20022;-87
2023/11/17 12:43:35;;;;;;;0.30;0.20;;;;;;;;;;6274514;22;20026;-84
2023/11/17 12:46:12;;;;;;;0.20;0.10;;;;;;;;;;6251673;22;20461;-85
2023/11/17 12:48:44;;;;;;;0.20;0.10;;;;;;;;;;6248097;22;20026;-84
2023/11/17 12:51:11;;;;;;;0.20;0.10;;;;;;;;;;6249647;22;20077;-85
2023/11/17 12:54:07;;;;;;;0.20;0.10;;;;;;;;;;6249652;22;20047;-88
2023/11/17 12:56:52;;;;;;;0.20;0.05;;;;;;;;;;6244987;22;20022;-87
2023/11/17 12:59:21;;;;;;;0.20;0.10;;;;;;;;;;6236873;22;20011;-84
2023/11/17 13:01:50;;;;;;;0.20;0.03;;;;;;;;;;6252528;22;20019;-86
2023/11/17 13:07:45;;;;;;;0.20;0.10;;;;;;;;;;6280837;22;20112;-85
2023/11/17 13:10:29;;;;;;;0.20;0.00;;;;;;;;;;6252938;22;20011;-88
2023/11/17 13:17:15;;;;;;;0.52;0.52;;;;;;;;;;6243526;22;20067;-89
2023/11/17 13:19:50;;;;;;;0.20;0.08;;;;;;;;;;6215122;23;20012;-88
2023/11/17 13:22:16;;;;;;;0.20;0.10;;;;;;;;;;6212283;23;20016;-89
2023/11/17 13:24:48;;;;;;;0.20;0.10;;;;;;;;;;6216183;23;20008;-86
2023/11/17 13:27:26;;;;;;;0.20;0.03;;;;;;;;;;6214505;23;20047;-88
2023/11/17 13:29:52;;;;;;;0.20;0.00;;;;;;;;;;6217907;22;20344;-84
2023/11/17 13:32:18;;;;;;;0.20;0.00;;;;;;;;;;6249270;22;20015;-84
2023/11/17 13:35:04;;;;;;;0.50;0.50;;;;;;;;;;6254349;22;20067;-90
2023/11/17 13:37:41;;;;;;;0.20;0.10;;;;;;;;;;6251859;22;20096;-87
2023/11/17 13:40:13;;;;;;;0.20;0.00;;;;;;;;;;6253345;22;20039;-90
2023/11/17 13:43:09;;;;;;;0.28;0.17;;;;;;;;;;6250387;22;20354;-91
2023/11/17 13:45:45;;;;;;;0.20;0.10;;;;;;;;;;6251951;22;20008;-90
2023/11/17 13:48:31;;;;;;;0.30;0.25;;;;;;;;;;6253368;22;20012;-89
2023/11/17 14:00:35;;;;;;;0.20;0.10;;;;;;;;;;6272764;22;20022;-87
2023/11/17 14:03:04;;;;;;;0.20;0.00;;;;;;;;;;6250449;22;20106;-87
2023/11/17 14:05:51;;;;;;;0.20;0.10;;;;;;;;;;6250427;22;20011;-87
2023/11/17 14:08:19;;;;;;;0.28;0.10;;;;;;;;;;6281685;22;20086;-88
2023/11/17 14:10:51;;;;;;;0.28;0.25;;;;;;;;;;6254516;22;20065;-89
2023/11/17 14:13:36;;;;;;;0.20;0.10;;;;;;;;;;6253447;22;20019;-89
2023/11/17 14:16:08;;;;;;;0.30;0.15;;;;;;;;;;6253306;22;20011;-91
2023/11/17 14:18:47;;;;;;;0.20;0.10;;;;;;;;;;6280209;22;20053;-89
2023/11/17 14:21:34;;;;;;;0.20;0.10;;;;;;;;;;6250225;22;20726;-87
2023/11/17 14:24:20;;;;;;;0.20;0.08;;;;;;;;;;6269466;22;20099;-90
2023/11/17 14:30:05;;;;;;;0.30;0.22;;;;;;;;;;6306930;22;20468;-88
2023/11/17 14:32:54;;;;;;;0.20;0.10;;;;;;;;;;6255890;22;20060;-91
2023/11/17 14:35:44;;;;;;;0.20;0.10;;;;;;;;;;6256447;22;20007;-90
2023/11/17 14:38:52;;;;;;;0.20;0.10;;;;;;;;;;6189306;23;20017;-90
2023/11/17 14:41:53;;;;;;;0.20;0.10;;;;;;;;;;6181943;22;20080;-87
2023/11/17 14:48:15;;;;;;;0.20;0.10;;;;;;;;;;6292304;22;20517;-88
2023/11/17 14:50:51;;;;;;;0.30;0.20;;;;;;;;;;6242104;22;20067;-86
2023/11/17 14:53:17;;;;;;;0.20;0.10;;;;;;;;;;6222292;22;20023;-87
2023/11/17 14:55:59;;;;;;;0.20;0.00;;;;;;;;;;6224292;22;20043;-88
2023/11/17 14:58:42;;;;;;;0.20;0.10;;;;;;;;;;6224295;22;20095;-88
2023/11/17 15:01:17;;;;;;;0.20;0.00;;;;;;;;;;6220181;22;20326;-86
2023/11/17 15:03:52;;;;;;;0.20;0.10;;;;;;;;;;6222836;22;20015;-89
2023/11/17 15:06:37;;;;;;;0.20;0.15;;;;;;;;;;6253190;22;20407;-87
2023/11/17 15:09:15;;;;;;;0.20;0.10;;;;;;;;;;6226373;22;20103;-88
2023/11/17 15:12:11;;;;;;;0.20;0.10;;;;;;;;;;6254495;22;20008;-89
2023/11/17 15:14:51;;;;;;;0.20;0.10;;;;;;;;;;6224075;22;20346;-88
2023/11/17 15:17:20;;;;;;;0.20;0.03;;;;;;;;;;6222763;22;20015;-88
2023/11/17 15:19:55;;;;;;;0.20;0.00;;;;;;;;;;6245855;22;20026;-87
2023/11/17 15:22:38;;;;;;;0.20;0.00;;;;;;;;;;6221333;22;20034;-87
2023/11/17 15:25:17;;;;;;;0.20;0.10;;;;;;;;;;6223362;22;20041;-88
2023/11/17 15:28:19;;;;;;;0.20;0.10;;;;;;;;;;6226201;22;20599;-84
2023/11/17 15:31:16;;;;;;;0.20;0.10;;;;;;;;;;6223681;22;20019;-85
2023/11/17 15:34:04;;;;;;;0.20;0.10;;;;;;;;;;6168388;22;20019;-85
2023/11/17 15:36:36;;;;;;;0.65;0.57;;;;;;;;;;6222740;22;20065;-86
2023/11/17 15:39:15;;;;;;;0.20;0.00;;;;;;;;;;6223336;22;20020;-87
2023/11/17 15:41:58;;;;;;;0.20;0.00;;;;;;;;;;6247255;22;20020;-87
2023/11/17 15:44:35;;;;;;;0.20;0.10;;;;;;;;;;6248164;22;20011;-85
2023/11/17 15:47:06;;;;;;;1.27;0.47;;;;;;;;;;6219855;22;20454;-88
2023/11/17 15:49:47;;;;;;;0.20;0.08;;;;;;;;;;6221282;22;20022;-89
2023/11/17 15:52:46;;;;;;;0.25;0.25;;;;;;;;;;6249692;22;20469;-89
2023/11/17 15:58:39;;;;;;;0.20;0.00;;;;;;;;;;6251064;22;20018;-89
2023/11/17 16:01:11;;;;;;;0.20;0.10;;;;;;;;;;6223563;22;20015;-87
2023/11/17 16:03:55;;;;;;;0.32;0.32;;;;;;;;;;6223653;22;20008;-87
2023/11/17 16:06:52;;;;;;;0.20;0.10;;;;;;;;;;6226677;22;20020;-89
2023/11/17 16:09:28;;;;;;;0.20;0.00;;;;;;;;;;6132510;23;20108;-89
2023/11/17 16:13:00;;;;;;;0.20;0.10;;;;;;;;;;6178942;23;20064;-89
2023/11/17 16:37:37;;;;;;;0.20;0.08;;;;;;;;;;6303637;22;20031;-87
2023/11/17 16:48:04;;;;;;;;;;;;;;;;;;;;;
2023/11/17 16:53:58;;;;;;;0.20;0.00;;;;;;;;;;6154287;22;20424;-87
2023/11/17 16:56:35;;;;;;;0.20;0.10;;;;;;;;;;6252791;22;20043;-86
2023/11/17 16:59:01;;;;;;;0.20;0.00;;;;;;;;;;6251533;22;20011;-85
2023/11/17 17:01:31;;;;;;;0.50;0.45;;;;;;;;;;6253139;22;20453;-87
2023/11/17 17:04:16;;;;;;;;;;;;;;;;;;;;;
2023/11/17 17:07:21;;;;;;;0.20;0.10;;;;;;;;;;6211518;23;20086;-86
2023/11/17 17:09:50;;;;;;;0.20;0.10;;;;;;;;;;6196788;22;20091;-87
2023/11/17 17:12:16;;;;;;;0.28;0.20;;;;;;;;;;6251565;22;20034;-87
2023/11/17 17:15:22;;;;;;;0.20;0.10;;;;;;;;;;6251956;22;20393;-88
2023/11/17 17:21:37;;;;;;;0.20;0.08;;;;;;;;;;6135587;22;20036;-88
2023/11/17 17:24:18;;;;;;;0.20;0.03;;;;;;;;;;6252551;22;20012;-87
2023/11/17 17:26:58;;;;;;;0.20;0.10;;;;;;;;;;6252680;22;20050;-88
2023/11/17 17:29:41;;;;;;;0.22;0.13;;;;;;;;;;6157756;23;20096;-86
2023/11/17 17:32:18;;;;;;;0.20;0.10;;;;;;;;;;6229129;22;20007;-87
2023/11/17 17:34:44;;;;;;;0.20;0.10;;;;;;;;;;6252877;22;20060;-88
2023/11/17 17:37:11;;;;;;;0.32;0.32;;;;;;;;;;6254852;22;20093;-87
2023/11/17 17:39:39;;;;;;;0.45;0.32;;;;;;;;;;6253069;22;20011;-87
2023/11/17 17:42:13;;;;;;;0.20;0.10;;;;;;;;;;6252871;22;20015;-87
2023/11/17 17:44:39;;;;;;;0.30;0.20;;;;;;;;;;6251071;22;20011;-86
2023/11/17 17:47:15;;;;;;;0.50;0.43;;;;;;;;;;6252329;22;20092;-87
2023/11/17 17:49:47;;;;;;;0.90;0.30;;;;;;;;;;6253709;22;20011;-86
2023/11/17 17:52:16;;;;;;;0.20;0.10;;;;;;;;;;6252545;22;20327;-87
2023/11/17 17:54:43;;;;;;;0.20;0.00;;;;;;;;;;6253651;22;20018;-87
2023/11/17 17:57:15;;;;;;;0.20;0.10;;;;;;;;;;6254187;22;20089;-87
2023/11/17 17:59:59;;;;;;;0.43;0.43;;;;;;;;;;6252583;22;20019;-88
2023/11/17 18:13:16;;;;;;;0.20;0.00;;;;;;;;;;6278243;22;20030;-88
2023/11/17 18:19:27;;;;;;;0.20;0.10;;;;;;;;;;6232067;22;20020;-87
2023/11/17 18:22:02;;;;;;;0.68;0.30;;;;;;;;;;6200332;22;20546;-86
2023/11/17 18:24:55;;;;;;;0.20;0.00;;;;;;;;;;6223743;22;20016;-88
2023/11/17 18:27:33;;;;;;;0.30;0.28;;;;;;;;;;6220507;22;20012;-88
2023/11/17 18:33:52;;;;;;;0.20;0.10;;;;;;;;;;6174122;22;20016;-88
2023/11/17 18:37:12;;;;;;;0.20;0.10;;;;;;;;;;6222736;22;20588;-88
2023/11/17 18:43:28;;;;;;;0.20;0.10;;;;;;;;;;6243161;22;20023;-87
2023/11/17 18:45:55;;;;;;;0.20;0.10;;;;;;;;;;6223648;22;20332;-86
2023/11/17 18:48:21;;;;;;;0.20;0.10;;;;;;;;;;6221189;22;20011;-85
2023/11/17 18:50:47;;;;;;;0.20;0.10;;;;;;;;;;6219556;22;20454;-87
2023/11/17 18:53:29;;;;;;;0.20;0.10;;;;;;;;;;5041164;27;20490;-87
2023/11/17 18:55:56;;;;;;;0.20;0.10;;;;;;;;;;5039255;28;20049;-86
2023/11/17 18:58:23;;;;;;;0.20;0.10;;;;;;;;;;5068714;28;20049;-84
2023/11/17 19:00:49;;;;;;;0.20;0.10;;;;;;;;;;5058672;28;20103;-86
2023/11/17 19:03:16;;;;;;;0.30;0.28;;;;;;;;;;5026129;28;20108;-85
2023/11/17 19:05:42;;;;;;;0.20;0.10;;;;;;;;;;5050505;28;20033;-85
2023/11/17 19:08:08;;;;;;;0.40;0.32;;;;;;;;;;5066895;28;20507;-85
2023/11/17 19:10:34;;;;;;;0.30;0.30;;;;;;;;;;5055616;28;20047;-86
2023/11/17 19:13:01;;;;;;;0.25;0.15;;;;;;;;;;5058215;28;20046;-86
2023/11/17 19:15:27;;;;;;;0.20;0.03;;;;;;;;;;5039565;28;20056;-86
2023/11/17 19:17:53;;;;;;;0.35;0.30;;;;;;;;;;5050325;28;20084;-86
2023/11/17 19:20:22;;;;;;;0.20;0.08;;;;;;;;;;5052873;28;20052;-85
2023/11/17 19:22:51;;;;;;;0.20;0.10;;;;;;;;;;5056699;28;20036;-87
2023/11/17 19:25:17;;;;;;;0.20;0.10;;;;;;;;;;5058815;28;20041;-85
2023/11/17 19:27:43;;;;;;;0.30;0.20;;;;;;;;;;5052770;28;20041;-86
2023/11/17 19:30:13;;;;;;;0.20;0.00;;;;;;;;;;5052843;28;20088;-87
2023/11/17 19:32:54;;;;;;;1.50;0.55;;;;;;;;;;5066346;28;20052;-87
2023/11/17 19:35:23;;;;;;;0.22;0.20;;;;;;;;;;5021988;28;20723;-85
2023/11/17 19:37:49;;;;;;;0.35;0.15;;;;;;;;;;5053014;28;20575;-85
2023/11/17 19:40:16;;;;;;;0.20;0.10;;;;;;;;;;5051216;28;20028;-87
2023/11/17 19:45:43;;;;;;;0.20;0.10;;;;;;;;;;5039678;28;20497;-88
2023/11/17 19:48:14;;;;;;;0.30;0.25;;;;;;;;;;5055181;28;20417;-86
2023/11/17 19:50:40;;;;;;;0.20;0.10;;;;;;;;;;5051589;28;20044;-87
2023/11/17 19:53:12;;;;;;;0.20;0.10;;;;;;;;;;5045268;28;20552;-87
2023/11/17 19:55:38;;;;;;;0.50;0.40;;;;;;;;;;5051001;28;21459;-85
2023/11/17 19:58:06;;;;;;;0.20;0.10;;;;;;;;;;5048171;28;20037;-85
2023/11/17 20:00:32;;;;;;;0.20;0.10;;;;;;;;;;5016151;28;20112;-85
2023/11/17 20:02:58;;;;;;;0.30;0.28;;;;;;;;;;5042425;28;20049;-86
2023/11/17 20:05:27;;;;;;;0.20;0.10;;;;;;;;;;5031098;28;20406;-84
2023/11/17 20:07:55;;;;;;;0.20;0.20;;;;;;;;;;5026567;28;20041;-85
2023/11/17 20:10:21;;;;;;;0.20;0.00;;;;;;;;;;5033987;28;20077;-85
2023/11/17 20:12:47;;;;;;;0.63;0.40;;;;;;;;;;5024316;28;20140;-85
2023/11/17 20:15:14;;;;;;;0.20;0.10;;;;;;;;;;5032439;28;20029;-86
2023/11/17 20:17:57;;;;;;;;;;;;;;;;;;;;;
2023/11/17 20:20:40;;;;;;;0.20;0.15;;;;;;;;;;5015295;28;20052;-87